createdAt,value
2018-01-27T00:02:09.307Z,92.12
2018-01-27T00:04:36.783Z,91.77
2018-01-27T00:07:04.247Z,91.31
2018-01-27T00:09:31.735Z,91.18
2018-01-27T00:11:59.202Z,91.17
2018-01-27T00:14:26.682Z,91.13
2018-01-27T00:16:54.232Z,91.00
2018-01-27T00:19:21.725Z,91.02
2018-01-27T00:21:49.187Z,91.19
2018-01-27T00:24:16.674Z,91.17
2018-01-27T00:26:44.126Z,91.12
2018-01-27T00:29:11.607Z,91.10
2018-01-27T00:31:39.075Z,91.50
2018-01-27T00:34:06.554Z,91.32
2018-01-27T00:36:34.014Z,91.17
2018-01-27T00:39:01.491Z,91.11
2018-01-27T00:41:31.179Z,91.10
2018-01-27T00:43:58.668Z,91.29
2018-01-27T00:46:26.130Z,91.86
2018-01-27T00:48:53.612Z,91.93
2018-01-27T00:51:21.078Z,92.34
2018-01-27T00:53:48.562Z,92.68
2018-01-27T00:56:16.027Z,92.64
2018-01-27T00:58:43.515Z,92.03
2018-01-27T01:01:10.979Z,91.92
2018-01-27T01:03:38.459Z,92.12
2018-01-27T01:06:05.917Z,92.29
2018-01-27T01:08:33.402Z,92.67
2018-01-27T01:11:00.858Z,92.94
2018-01-27T01:13:28.319Z,93.18
2018-01-27T01:15:55.800Z,93.37
2018-01-27T01:18:23.266Z,93.55
2018-01-27T01:20:50.754Z,93.76
2018-01-27T01:23:18.212Z,93.80
2018-01-27T01:25:45.691Z,93.74
2018-01-27T01:28:13.147Z,93.77
2018-01-27T01:30:40.623Z,93.65
2018-01-27T01:33:08.088Z,93.69
2018-01-27T01:35:35.566Z,93.51
2018-01-27T01:38:03.027Z,93.62
2018-01-27T01:40:30.518Z,93.68
2018-01-27T01:46:00.110Z,93.52
2018-01-27T01:48:27.635Z,93.26
2018-01-27T01:50:55.119Z,93.14
2018-01-27T01:53:22.582Z,93.06
2018-01-27T01:55:50.072Z,93.11
2018-01-27T01:58:17.530Z,93.25
2018-01-27T02:00:45.008Z,93.48
2018-01-27T02:03:12.466Z,93.57
2018-01-27T02:05:39.946Z,93.68
2018-01-27T02:08:07.407Z,93.70
2018-01-27T02:10:34.891Z,93.63
2018-01-27T02:13:02.355Z,93.33
2018-01-27T02:15:29.850Z,93.14
2018-01-27T02:17:57.315Z,92.88
2018-01-27T02:20:24.798Z,92.80
2018-01-27T02:22:52.254Z,92.52
2018-01-27T02:25:19.743Z,92.12
2018-01-27T02:27:47.200Z,91.85
2018-01-27T02:30:14.684Z,91.71
2018-01-27T02:32:42.149Z,91.76
2018-01-27T02:35:09.639Z,91.77
2018-01-27T02:37:37.106Z,91.62
2018-01-27T02:40:04.595Z,91.48
2018-01-27T02:42:32.065Z,91.55
2018-01-27T02:44:59.535Z,91.66
2018-01-27T02:47:27.022Z,91.60
2018-01-27T02:49:54.486Z,91.56
2018-01-27T02:52:21.966Z,91.50
2018-01-27T02:54:49.427Z,91.46
2018-01-27T02:57:16.911Z,91.58
2018-01-27T02:59:44.370Z,91.39
2018-01-27T03:02:11.846Z,91.32
2018-01-27T03:04:39.545Z,90.91
2018-01-27T03:07:07.029Z,91.18
2018-01-27T03:09:34.484Z,91.58
2018-01-27T03:12:01.982Z,91.39
2018-01-27T03:14:29.446Z,91.53
2018-01-27T03:16:56.929Z,91.47
2018-01-27T03:19:24.386Z,91.32
2018-01-27T03:21:51.875Z,91.33
2018-01-27T03:24:19.338Z,91.44
2018-01-27T03:26:46.820Z,91.36
2018-01-27T03:29:14.294Z,91.25
2018-01-27T03:31:41.781Z,91.25
2018-01-27T03:34:09.238Z,91.18
2018-01-27T03:36:36.719Z,90.81
2018-01-27T03:39:04.176Z,90.77
2018-01-27T03:41:32.058Z,90.84
2018-01-27T03:43:59.518Z,90.84
2018-01-27T03:46:26.997Z,90.90
2018-01-27T03:48:54.449Z,90.90
2018-01-27T03:51:21.931Z,90.82
2018-01-27T03:53:49.394Z,90.79
2018-01-27T03:56:16.874Z,90.65
2018-01-27T03:58:44.334Z,90.33
2018-01-27T04:01:11.819Z,91.36
2018-01-27T04:03:39.290Z,91.04
2018-01-27T04:06:06.780Z,90.97
2018-01-27T04:08:34.247Z,90.96
2018-01-27T04:11:01.714Z,91.07
2018-01-27T04:13:29.198Z,91.26
2018-01-27T04:15:56.670Z,91.22
2018-01-27T04:18:24.150Z,91.13
2018-01-27T04:20:51.619Z,91.19
2018-01-27T04:23:19.095Z,90.96
2018-01-27T04:25:46.567Z,90.94
2018-01-27T04:28:14.053Z,91.00
2018-01-27T04:30:41.518Z,91.38
2018-01-27T04:33:08.998Z,91.67
2018-01-27T04:35:36.462Z,91.81
2018-01-27T04:38:03.943Z,91.93
2018-01-27T04:40:31.451Z,92.14
2018-01-27T04:42:58.927Z,91.77
2018-01-27T04:45:26.392Z,91.68
2018-01-27T04:47:53.896Z,92.73
2018-01-27T04:50:21.350Z,92.51
2018-01-27T04:52:48.833Z,92.30
2018-01-27T04:55:16.290Z,92.35
2018-01-27T04:57:43.766Z,92.22
2018-01-27T05:00:11.223Z,92.17
2018-01-27T05:02:38.705Z,92.26
2018-01-27T05:05:06.167Z,91.95
2018-01-27T05:07:33.655Z,92.21
2018-01-27T05:10:01.110Z,91.51
2018-01-27T05:12:28.602Z,91.19
2018-01-27T05:14:56.065Z,91.10
2018-01-27T05:17:23.548Z,90.97
2018-01-27T05:19:51.013Z,90.74
2018-01-27T05:22:18.495Z,90.77
2018-01-27T05:24:45.956Z,90.30
2018-01-27T05:27:13.455Z,90.49
2018-01-27T05:29:40.922Z,90.37
2018-01-27T05:32:08.386Z,90.26
2018-01-27T05:34:35.862Z,90.65
2018-01-27T05:37:03.327Z,89.80
2018-01-27T05:39:30.814Z,89.81
2018-01-27T05:41:58.278Z,89.37
2018-01-27T05:44:25.759Z,88.99
2018-01-27T05:46:53.223Z,89.14
2018-01-27T05:49:20.706Z,89.34
2018-01-27T05:51:48.168Z,89.70
2018-01-27T05:54:15.646Z,89.97
2018-01-27T05:56:43.111Z,89.96
2018-01-27T05:59:10.603Z,90.16
2018-01-27T06:01:38.062Z,90.07
2018-01-27T06:04:05.550Z,90.13
2018-01-27T06:06:33.003Z,90.42
2018-01-27T06:09:00.483Z,90.51
2018-01-27T06:11:27.952Z,90.64
2018-01-27T06:13:55.435Z,90.81
2018-01-27T06:16:22.891Z,91.04
2018-01-27T06:18:50.374Z,90.99
2018-01-27T06:21:17.846Z,90.86
2018-01-27T06:23:45.322Z,90.91
2018-01-27T06:26:12.786Z,91.29
2018-01-27T06:28:40.262Z,91.44
2018-01-27T06:31:07.722Z,91.57
2018-01-27T06:33:35.202Z,91.79
2018-01-27T06:36:02.697Z,92.25
2018-01-27T06:38:30.174Z,91.96
2018-01-27T06:40:57.631Z,91.87
2018-01-27T06:43:25.107Z,91.87
2018-01-27T06:45:52.569Z,91.77
2018-01-27T06:48:20.058Z,91.79
2018-01-27T06:50:47.515Z,91.98
2018-01-27T06:53:14.974Z,92.33
2018-01-27T06:55:42.460Z,92.15
2018-01-27T06:58:09.926Z,92.14
2018-01-27T07:00:37.472Z,91.94
2018-01-27T07:03:04.939Z,91.83
2018-01-27T07:05:32.418Z,91.74
2018-01-27T07:07:59.903Z,91.69
2018-01-27T07:10:27.382Z,91.92
2018-01-27T07:12:54.850Z,91.70
2018-01-27T07:15:22.327Z,91.50
2018-01-27T07:17:49.803Z,91.78
2018-01-27T07:20:17.279Z,91.74
2018-01-27T07:22:44.738Z,91.87
2018-01-27T07:25:12.224Z,91.88
2018-01-27T07:27:39.693Z,91.66
2018-01-27T07:30:07.170Z,91.62
2018-01-27T07:32:34.632Z,91.60
2018-01-27T07:35:02.126Z,91.14
2018-01-27T07:37:29.595Z,91.00
2018-01-27T07:39:57.114Z,90.88
2018-01-27T07:42:24.570Z,91.06
2018-01-27T07:44:52.051Z,90.75
2018-01-27T07:47:19.519Z,90.66
2018-01-27T07:49:47.015Z,90.51
2018-01-27T07:52:14.475Z,90.28
2018-01-27T07:54:41.946Z,90.47
2018-01-27T07:57:09.412Z,90.01
2018-01-27T07:59:36.935Z,90.40
2018-01-27T08:02:04.399Z,90.34
2018-01-27T08:04:31.882Z,90.01
2018-01-27T08:06:59.342Z,89.77
2018-01-27T08:09:26.838Z,89.87
2018-01-27T08:11:54.299Z,89.85
2018-01-27T08:14:21.761Z,89.26
2018-01-27T08:16:49.245Z,89.91
2018-01-27T08:19:16.702Z,89.73
2018-01-27T08:21:44.179Z,89.85
2018-01-27T08:24:11.647Z,90.53
2018-01-27T08:26:39.130Z,90.86
2018-01-27T08:29:06.597Z,90.52
2018-01-27T08:31:34.082Z,89.74
2018-01-27T08:34:01.547Z,89.61
2018-01-27T08:36:29.030Z,89.50
2018-01-27T08:38:56.506Z,89.51
2018-01-27T08:41:23.990Z,89.36
2018-01-27T08:43:51.459Z,89.37
2018-01-27T08:46:18.943Z,88.40
2018-01-27T08:48:46.411Z,89.06
2018-01-27T08:51:13.898Z,87.81
2018-01-27T08:53:41.358Z,86.54
2018-01-27T08:56:08.845Z,87.68
2018-01-27T08:58:36.318Z,86.44
2018-01-27T09:01:03.790Z,86.31
2018-01-27T09:03:31.287Z,86.23
2018-01-27T09:05:58.767Z,85.85
2018-01-27T09:08:26.232Z,87.99
2018-01-27T09:10:53.710Z,87.66
2018-01-27T09:13:21.168Z,85.97
2018-01-27T09:15:48.657Z,87.23
2018-01-27T09:18:16.120Z,86.43
2018-01-27T09:20:43.602Z,87.13
2018-01-27T09:23:11.059Z,87.35
2018-01-27T09:25:38.555Z,86.41
2018-01-27T09:28:06.016Z,86.43
2018-01-27T09:30:33.512Z,86.97
2018-01-27T09:33:00.971Z,86.94
2018-01-27T09:35:28.442Z,88.19
2018-01-27T09:37:55.936Z,87.73
2018-01-27T09:40:23.395Z,88.38
2018-01-27T09:42:50.874Z,87.42
2018-01-27T09:45:18.354Z,86.19
2018-01-27T09:47:45.845Z,85.02
2018-01-27T09:50:13.325Z,85.50
2018-01-27T09:52:40.814Z,82.75
2018-01-27T09:55:08.287Z,83.45
2018-01-27T09:57:35.789Z,83.35
2018-01-27T10:00:03.247Z,83.73
2018-01-27T10:02:30.723Z,83.24
2018-01-27T10:04:58.612Z,83.45
2018-01-27T10:07:26.103Z,82.30
2018-01-27T10:09:53.562Z,82.43
2018-01-27T10:12:21.043Z,81.54
2018-01-27T10:14:48.607Z,82.73
2018-01-27T10:17:16.086Z,82.02
2018-01-27T10:19:43.547Z,81.26
2018-01-27T10:22:11.039Z,81.56
2018-01-27T10:24:38.508Z,80.15
2018-01-27T10:27:05.988Z,81.74
2018-01-27T10:29:33.446Z,79.17
2018-01-27T10:32:00.930Z,78.11
2018-01-27T10:34:28.495Z,78.26
2018-01-27T10:36:55.980Z,79.06
2018-01-27T10:39:23.444Z,79.72
2018-01-27T10:41:50.923Z,79.07
2018-01-27T10:44:18.599Z,79.78
2018-01-27T10:46:46.314Z,80.27
2018-01-27T10:49:13.776Z,77.67
2018-01-27T10:51:41.259Z,79.10
2018-01-27T10:54:08.962Z,77.20
2018-01-27T10:56:36.423Z,77.16
2018-01-27T10:59:03.914Z,78.77
2018-01-27T11:01:31.406Z,77.38
2018-01-27T11:03:58.890Z,78.56
2018-01-27T11:06:26.352Z,78.21
2018-01-27T11:08:53.839Z,76.97
2018-01-27T11:11:21.319Z,77.39
2018-01-27T11:13:48.805Z,78.28
2018-01-27T11:16:16.291Z,78.71
2018-01-27T11:18:43.771Z,77.93
2018-01-27T11:21:11.243Z,78.18
2018-01-27T11:23:38.728Z,78.16
2018-01-27T11:26:06.183Z,77.82
2018-01-27T11:28:33.668Z,77.86
2018-01-27T11:31:01.147Z,77.91
2018-01-27T11:33:28.627Z,77.60
2018-01-27T11:35:56.082Z,77.06
2018-01-27T11:38:23.566Z,76.11
2018-01-27T11:40:51.040Z,76.08
2018-01-27T11:43:18.522Z,77.36
2018-01-27T11:45:45.986Z,76.61
2018-01-27T11:48:14.201Z,77.01
2018-01-27T11:50:41.778Z,77.55
2018-01-27T11:53:09.282Z,76.31
2018-01-27T11:55:36.837Z,77.97
2018-01-27T11:58:04.316Z,75.78
2018-01-27T12:00:31.774Z,76.38
2018-01-27T12:02:59.263Z,74.00
2018-01-27T12:05:26.718Z,74.78
2018-01-27T12:07:54.190Z,77.43
2018-01-27T12:10:21.658Z,72.54
2018-01-27T12:12:49.139Z,74.71
2018-01-27T12:15:16.598Z,75.67
2018-01-27T12:17:44.102Z,74.56
2018-01-27T12:20:11.649Z,74.59
2018-01-27T12:22:39.114Z,72.08
2018-01-27T12:25:06.606Z,70.43
2018-01-27T12:27:34.067Z,70.85
2018-01-27T12:30:01.665Z,72.03
2018-01-27T12:32:29.133Z,68.23
2018-01-27T12:34:56.611Z,71.19
2018-01-27T12:37:24.189Z,67.20
2018-01-27T12:39:51.671Z,67.94
2018-01-27T12:42:19.131Z,66.48
2018-01-27T12:44:46.615Z,65.07
2018-01-27T12:47:14.079Z,67.24
2018-01-27T12:49:41.557Z,66.62
2018-01-27T12:52:09.018Z,67.39
2018-01-27T12:54:36.499Z,66.50
2018-01-27T12:57:03.952Z,65.56
2018-01-27T12:59:31.451Z,66.94
2018-01-27T13:01:58.906Z,66.24
2018-01-27T13:04:26.382Z,66.32
2018-01-27T13:06:53.834Z,66.88
2018-01-27T13:09:21.303Z,67.36
2018-01-27T13:11:48.828Z,66.23
2018-01-27T13:14:16.306Z,66.26
2018-01-27T13:16:43.754Z,67.39
2018-01-27T13:19:11.238Z,67.63
2018-01-27T13:21:38.706Z,65.55
2018-01-27T13:24:06.211Z,67.93
2018-01-27T13:26:33.678Z,68.48
2018-01-27T13:29:01.166Z,66.85
2018-01-27T13:31:28.623Z,68.13
2018-01-27T13:33:56.561Z,67.00
2018-01-27T13:36:24.014Z,65.69
2018-01-27T13:38:51.466Z,65.57
2018-01-27T13:41:18.938Z,67.41
2018-01-27T13:43:46.399Z,67.28
2018-01-27T13:46:13.896Z,67.50
2018-01-27T13:48:41.565Z,68.15
2018-01-27T13:51:09.246Z,67.45
2018-01-27T13:53:36.789Z,67.59
2018-01-27T13:56:07.333Z,66.16
2018-01-27T13:58:35.062Z,65.52
2018-01-27T14:01:02.663Z,65.15
2018-01-27T14:03:30.217Z,64.60
2018-01-27T14:05:57.810Z,64.35
2018-01-27T14:08:25.466Z,64.24
2018-01-27T14:10:57.873Z,65.83
2018-01-27T14:13:25.773Z,60.31
2018-01-27T14:15:53.301Z,59.26
2018-01-27T14:18:20.803Z,60.05
2018-01-27T14:20:48.648Z,58.40
2018-01-27T14:29:30.343Z,56.54
2018-01-27T14:32:04.290Z,58.75
2018-01-27T14:37:37.770Z,56.97
2018-01-27T14:46:10.560Z,60.61
2018-01-27T14:49:02.111Z,61.54
2018-01-27T14:57:08.531Z,63.51
2018-01-27T14:59:36.167Z,63.66
2018-01-27T15:05:06.761Z,64.34
2018-01-27T15:07:34.419Z,65.40
2018-01-27T15:15:37.391Z,65.38
2018-01-27T15:21:09.201Z,66.30
2018-01-27T15:31:46.916Z,66.82
2018-01-27T15:34:15.235Z,67.21
2018-01-27T15:45:52.986Z,67.60
2018-01-27T15:48:21.139Z,68.78
2018-01-27T15:50:51.930Z,68.68
2018-01-27T15:53:22.875Z,69.29
2018-01-27T16:04:36.308Z,72.17
2018-01-27T16:07:03.867Z,73.01
2018-01-27T16:09:52.816Z,74.43
2018-01-27T16:17:58.707Z,74.76
2018-01-27T16:38:24.760Z,74.67
2018-01-27T16:40:52.342Z,75.55
2018-01-27T16:43:19.904Z,76.35
2018-01-27T16:45:47.486Z,77.59
2018-01-27T16:48:15.216Z,78.49
2018-01-27T16:50:42.693Z,78.68
2018-01-27T16:53:10.167Z,78.91
2018-01-27T16:55:37.634Z,78.12
2018-01-27T16:58:05.130Z,78.81
2018-01-27T17:00:32.599Z,79.33
2018-01-27T17:03:00.079Z,80.34
2018-01-27T17:05:27.535Z,80.82
2018-01-27T17:07:55.024Z,80.61
2018-01-27T17:10:22.494Z,80.63
2018-01-27T17:12:49.974Z,81.29
2018-01-27T17:15:17.444Z,81.31
2018-01-27T17:17:45.770Z,81.11
2018-01-27T17:20:13.235Z,79.92
2018-01-27T17:22:40.745Z,80.02
2018-01-27T17:25:08.220Z,80.95
2018-01-27T17:27:35.697Z,82.40
2018-01-27T17:30:03.158Z,82.76
2018-01-27T17:32:30.653Z,83.06
2018-01-27T17:34:58.108Z,83.03
2018-01-27T17:37:25.667Z,82.55
2018-01-27T17:39:53.307Z,82.46
2018-01-27T17:42:20.989Z,82.15
2018-01-27T17:44:48.535Z,82.27
2018-01-27T17:47:16.309Z,82.74
2018-01-27T17:49:43.783Z,82.70
2018-01-27T17:52:11.243Z,82.39
2018-01-27T17:54:38.731Z,82.03
2018-01-27T17:57:06.191Z,82.25
2018-01-27T17:59:33.670Z,82.14
2018-01-27T18:02:01.171Z,83.01
2018-01-27T18:04:28.628Z,83.29
2018-01-27T18:06:56.109Z,82.86
2018-01-27T18:09:23.586Z,83.02
2018-01-27T18:11:51.066Z,82.51
2018-01-27T18:14:18.554Z,81.85
2018-01-27T18:16:46.349Z,80.94
2018-01-27T18:19:13.837Z,80.37
2018-01-27T18:21:41.307Z,79.78
2018-01-27T18:24:08.825Z,79.54
2018-01-27T18:26:36.287Z,79.60
2018-01-27T18:29:03.758Z,80.20
2018-01-27T18:31:31.214Z,80.12
2018-01-27T18:33:58.734Z,79.98
2018-01-27T18:36:26.194Z,80.20
2018-01-27T18:38:53.705Z,79.94
2018-01-27T18:41:21.170Z,80.06
2018-01-27T18:43:53.838Z,79.79
2018-01-27T18:46:21.304Z,79.85
2018-01-27T18:48:48.790Z,79.40
2018-01-27T18:51:16.246Z,79.44
2018-01-27T18:53:43.790Z,79.58
2018-01-27T18:56:11.264Z,79.80
2018-01-27T18:58:38.760Z,79.46
2018-01-27T19:01:06.283Z,79.76
2018-01-27T19:03:33.765Z,80.34
2018-01-27T19:06:01.226Z,80.20
2018-01-27T19:08:28.694Z,79.59
2018-01-27T19:10:56.178Z,79.87
2018-01-27T19:13:23.648Z,78.67
2018-01-27T19:15:51.130Z,78.96
2018-01-27T19:18:18.608Z,78.47
2018-01-27T19:20:46.094Z,78.91
2018-01-27T19:23:13.611Z,78.45
2018-01-27T19:25:41.086Z,78.53
2018-01-27T19:28:08.560Z,78.28
2018-01-27T19:30:36.043Z,78.42
2018-01-27T19:33:03.506Z,78.49
2018-01-27T19:35:30.991Z,78.37
2018-01-27T19:37:58.479Z,77.86
2018-01-27T19:40:25.973Z,77.86
2018-01-27T19:42:53.453Z,77.39
2018-01-27T19:45:20.951Z,77.47
2018-01-27T19:47:48.406Z,77.27
2018-01-27T19:50:15.891Z,77.02
2018-01-27T19:52:43.355Z,77.52
2018-01-27T19:55:10.847Z,77.41
2018-01-27T19:57:38.307Z,76.95
2018-01-27T20:00:05.802Z,76.82
2018-01-27T20:02:33.288Z,76.73
2018-01-27T20:05:00.785Z,76.09
2018-01-27T20:07:28.262Z,75.74
2018-01-27T20:09:55.747Z,75.83
2018-01-27T20:12:23.214Z,76.36
2018-01-27T20:14:50.699Z,76.30
2018-01-27T20:17:18.163Z,76.13
2018-01-27T20:19:45.683Z,76.23
2018-01-27T20:22:13.150Z,75.26
2018-01-27T20:24:40.604Z,75.79
2018-01-27T20:27:08.132Z,75.06
2018-01-27T20:29:35.618Z,75.24
2018-01-27T20:32:03.107Z,74.87
2018-01-27T20:34:30.622Z,74.87
2018-01-27T20:36:58.222Z,74.63
2018-01-27T20:39:25.670Z,74.84
2018-01-27T20:41:53.155Z,75.12
2018-01-27T20:44:20.621Z,74.78
2018-01-27T20:46:48.090Z,74.62
2018-01-27T20:49:15.566Z,74.99
2018-01-27T20:51:43.091Z,74.58
2018-01-27T20:54:10.548Z,75.00
2018-01-27T20:56:38.020Z,74.99
2018-01-27T20:59:05.546Z,73.79
2018-01-27T21:01:33.053Z,73.73
2018-01-27T21:04:00.518Z,73.48
2018-01-27T21:06:28.004Z,72.83
2018-01-27T21:08:55.466Z,73.24
2018-01-27T21:11:22.955Z,72.92
2018-01-27T21:13:50.419Z,73.67
2018-01-27T21:16:17.900Z,73.47
2018-01-27T21:18:45.358Z,73.20
2018-01-27T21:21:12.870Z,72.91
2018-01-27T21:23:40.350Z,72.72
2018-01-27T21:26:07.838Z,73.21
2018-01-27T21:28:35.298Z,73.09
2018-01-27T21:31:02.779Z,72.59
2018-01-27T21:33:30.282Z,72.66
2018-01-27T21:35:57.754Z,72.62
2018-01-27T21:38:25.211Z,75.97
2018-01-27T21:40:52.666Z,74.63
2018-01-27T21:43:20.173Z,74.72
2018-01-27T21:45:47.630Z,76.97
2018-01-27T21:48:15.113Z,76.46
2018-01-27T21:50:42.574Z,75.56
2018-01-27T21:53:10.051Z,76.38
2018-01-27T21:55:37.505Z,73.63
2018-01-27T21:58:04.987Z,75.40
2018-01-27T22:00:32.470Z,75.47
2018-01-27T22:02:59.960Z,75.76
2018-01-27T22:05:27.417Z,76.75
2018-01-27T22:07:54.919Z,76.89
2018-01-27T22:10:22.379Z,75.33
2018-01-27T22:12:49.872Z,77.34
2018-01-27T22:15:17.342Z,76.23
2018-01-27T22:17:44.829Z,76.87
2018-01-27T22:20:12.302Z,75.60
2018-01-27T22:22:39.869Z,75.96
2018-01-27T22:25:07.322Z,77.04
2018-01-27T22:27:34.835Z,77.47
2018-01-27T22:30:02.299Z,75.44
2018-01-27T22:32:29.785Z,76.44
2018-01-27T22:34:57.263Z,75.05
2018-01-27T22:37:24.747Z,76.01
2018-01-27T22:39:52.204Z,77.73
2018-01-27T22:42:19.685Z,77.58
2018-01-27T22:44:47.143Z,77.25
2018-01-27T22:47:14.632Z,79.56
2018-01-27T22:49:42.093Z,77.30
2018-01-27T22:52:09.567Z,75.37
2018-01-27T22:54:37.030Z,75.10
2018-01-27T22:57:04.521Z,74.84
2018-01-27T22:59:31.986Z,75.33
2018-01-27T23:01:59.441Z,72.46
2018-01-27T23:04:26.922Z,73.74
2018-01-27T23:06:54.379Z,71.47
2018-01-27T23:09:21.866Z,72.18
2018-01-27T23:11:49.320Z,72.16
2018-01-27T23:14:16.800Z,73.09
2018-01-27T23:16:44.259Z,73.40
2018-01-27T23:19:11.732Z,71.49
2018-01-27T23:21:39.195Z,71.21
2018-01-27T23:24:06.670Z,71.99
2018-01-27T23:26:34.127Z,70.79
2018-01-27T23:29:01.600Z,70.88
2018-01-27T23:31:29.052Z,70.41
2018-01-27T23:33:56.535Z,71.19
2018-01-27T23:36:23.994Z,70.51
2018-01-27T23:38:51.473Z,71.84
2018-01-27T23:41:18.930Z,70.32
2018-01-27T23:43:46.417Z,71.37
2018-01-27T23:46:13.874Z,71.66
2018-01-27T23:48:41.355Z,70.94
2018-01-27T23:51:08.810Z,71.51
2018-01-27T23:53:36.279Z,71.55
2018-01-27T23:56:03.731Z,72.53
2018-01-27T23:58:31.207Z,70.87
